Time;durP1;ratioP1;P1;durP2;ratioP2;P2;SDS_P1;SDS_P2;PMS_P1;PMS_P2;Temp;Humidity;BMP_temperature;BMP_pressure;BME280_temperature;BME280_humidity;BME280_pressure;Samples;Min_cycle;Max_cycle;Signal;HPM_P1;HPM_P2
2023/04/14 00:00:08;;;;;;;5.50;3.70;;;;;;;11.21;73.55;98646.36;107077;1258;75080;-37
2023/04/14 00:02:44;;;;;;;6.20;3.80;;;;;;;11.18;73.64;98650.29;107100;1259;68924;-37
2023/04/14 00:05:13;;;;;;;6.00;3.20;;;;;;;11.14;73.58;98649.65;107071;1259;72754;-38
2023/04/14 00:07:42;;;;;;;5.40;3.50;;;;;;;11.14;73.53;98652.21;107075;1262;61188;-37
2023/04/14 00:10:11;;;;;;;6.50;3.70;;;;;;;11.16;73.51;98651.75;107092;1259;61493;-37
2023/04/14 00:12:39;;;;;;;6.80;3.60;;;;;;;11.12;73.63;98652.90;107152;1260;74833;-37
2023/04/14 00:15:09;;;;;;;5.30;3.60;;;;;;;11.12;73.84;98651.66;107062;1260;69506;-37
2023/04/14 00:17:38;;;;;;;4.90;3.50;;;;;;;11.07;73.81;98649.40;107056;1258;73548;-37
2023/04/14 00:20:08;;;;;;;6.70;3.90;;;;;;;11.06;73.99;98646.42;107075;1260;61738;-37
2023/04/14 00:22:37;;;;;;;5.60;3.20;;;;;;;11.13;74.08;98646.15;107083;1259;61557;-37
2023/04/14 00:25:07;;;;;;;5.30;3.40;;;;;;;11.13;74.00;98644.98;107129;1257;74302;-37
2023/04/14 00:27:36;;;;;;;7.60;3.40;;;;;;;11.13;73.95;98645.45;107081;1260;68906;-37
2023/04/14 00:30:15;;;;;;;6.50;4.00;;;;;;;11.10;74.00;98646.30;106997;1261;73760;-37
2023/04/14 00:32:45;;;;;;;7.40;3.60;;;;;;;11.03;73.85;98649.05;107025;1257;60486;-36
2023/04/14 00:35:14;;;;;;;6.20;3.20;;;;;;;10.96;73.98;98645.59;107053;1259;61194;-37
2023/04/14 00:37:45;;;;;;;6.90;3.20;;;;;;;10.93;74.12;98645.66;107035;1259;75306;-37
2023/04/14 00:40:14;;;;;;;4.80;3.00;;;;;;;10.90;74.12;98645.64;107060;1261;69133;-38
2023/04/14 00:42:43;;;;;;;5.80;3.70;;;;;;;10.83;74.16;98648.54;107042;1259;73907;-37
2023/04/14 00:45:12;;;;;;;5.60;3.40;;;;;;;10.77;74.11;98649.77;107107;1261;60414;-37
2023/04/14 00:47:45;;;;;;;6.70;3.20;;;;;;;10.71;74.33;98652.41;107092;1262;61261;-37
2023/04/14 00:50:16;;;;;;;6.00;3.40;;;;;;;10.73;74.33;98649.56;107075;1262;72968;-37
2023/04/14 00:52:46;;;;;;;7.90;3.50;;;;;;;10.79;74.23;98646.27;107104;1262;69114;-38
2023/04/14 00:55:18;;;;;;;4.80;3.30;;;;;;;10.76;74.37;98640.52;107047;1257;73909;-37
2023/04/14 00:57:46;;;;;;;4.90;3.20;;;;;;;10.82;74.21;98647.30;107131;1257;60546;-37
2023/04/14 01:00:16;;;;;;;4.90;3.80;;;;;;;10.81;73.97;98650.40;107090;1261;61253;-37
2023/04/14 01:02:45;;;;;;;4.60;3.10;;;;;;;10.82;74.14;98652.73;107030;1259;74938;-37
2023/04/14 01:05:15;;;;;;;6.90;3.20;;;;;;;10.84;74.12;98655.91;107090;1260;67986;-37
2023/04/14 01:07:47;;;;;;;5.20;3.70;;;;;;;10.91;73.87;98652.70;107061;1258;73880;-37
2023/04/14 01:10:15;;;;;;;5.80;3.90;;;;;;;10.98;73.55;98654.29;107127;1257;60509;-38
2023/04/14 01:13:07;;;;;;;5.60;3.60;;;;;;;10.99;73.14;98650.19;107037;1259;60660;-38
2023/04/14 01:15:51;;;;;;;4.10;3.30;;;;;;;10.96;73.35;98648.98;107115;1261;74901;-36
2023/04/14 01:18:39;;;;;;;4.90;3.60;;;;;;;10.96;73.52;98646.22;107062;1258;68859;-36
2023/04/14 01:21:19;;;;;;;6.50;3.00;;;;;;;10.98;73.26;98649.17;107029;1259;72451;-37
2023/04/14 01:24:13;;;;;;;5.50;3.00;;;;;;;11.00;73.15;98652.99;106999;1261;63225;-37
2023/04/14 01:26:42;;;;;;;5.90;3.80;;;;;;;11.03;73.04;98657.81;107079;1261;61219;-37
2023/04/14 01:29:29;;;;;;;3.40;2.30;;;;;;;11.01;73.14;98656.78;107040;1259;75029;-37
2023/04/14 01:32:04;;;;;;;4.50;3.60;;;;;;;11.01;73.11;98658.18;107092;1262;68948;-37
2023/04/14 01:34:52;;;;;;;4.90;3.70;;;;;;;10.99;73.21;98665.06;107095;1259;73610;-37
2023/04/14 01:37:34;;;;;;;5.30;3.30;;;;;;;11.01;73.26;98666.33;107040;1259;63212;-37
2023/04/14 01:40:06;;;;;;;;;;;;;;;11.09;73.14;98662.73;107127;1262;61348;-36
2023/04/14 01:42:35;;;;;;;5.50;3.60;;;;;;;11.11;72.82;98665.98;107191;1262;75070;-37
2023/04/14 01:45:09;;;;;;;5.90;3.90;;;;;;;11.05;72.54;98666.27;107152;1257;68147;-37
2023/04/14 01:47:39;;;;;;;6.70;4.00;;;;;;;11.06;72.60;98662.39;107074;1260;73597;-37
2023/04/14 01:50:09;;;;;;;6.10;4.10;;;;;;;11.04;72.49;98663.08;106873;1259;61236;-37
2023/04/14 01:52:42;;;;;;;7.00;4.50;;;;;;;11.00;72.32;98665.84;107046;1259;60413;-37
2023/04/14 01:55:10;;;;;;;;;;;;;;;10.92;72.36;98665.80;107020;1259;75918;-38
2023/04/14 01:57:41;;;;;;;4.70;3.70;;;;;;;10.84;72.01;98672.50;107061;1260;68897;-38
2023/04/14 02:00:10;;;;;;;10.90;4.20;;;;;;;10.78;72.33;98675.17;107025;1257;73861;-38
2023/04/14 02:02:44;;;;;;;7.20;4.70;;;;;;;10.75;72.37;98674.98;107023;1258;61608;-38
2023/04/14 02:05:14;;;;;;;5.70;4.20;;;;;;;10.72;72.46;98676.36;107077;1258;61298;-38
2023/04/14 02:07:45;;;;;;;7.90;4.30;;;;;;;10.71;72.74;98681.45;106997;1263;74970;-38
2023/04/14 02:10:15;;;;;;;7.10;4.50;;;;;;;10.73;72.72;98678.39;106862;1259;69651;-38
2023/04/14 02:12:52;;;;;;;9.50;4.30;;;;;;;10.73;72.49;98677.84;107049;1261;73840;-38
2023/04/14 02:15:39;;;;;;;5.20;3.90;;;;;;;10.82;72.68;98681.46;107014;1262;61648;-38
2023/04/14 02:18:08;;;;;;;6.50;4.60;;;;;;;10.85;72.65;98683.42;107020;1258;61571;-38
2023/04/14 02:20:42;;;;;;;8.30;4.70;;;;;;;10.88;72.40;98684.60;107012;1260;74833;-38
2023/04/14 02:23:27;;;;;;;8.50;5.10;;;;;;;10.90;72.20;98688.02;107013;1257;69084;-38
2023/04/14 02:26:11;;;;;;;7.80;4.80;;;;;;;10.88;72.16;98693.27;107086;1262;73946;-38
2023/04/14 02:28:49;;;;;;;8.30;4.90;;;;;;;10.85;71.95;98692.79;107121;1259;63200;-38
2023/04/14 02:31:20;;;;;;;7.30;5.00;;;;;;;10.79;71.73;98690.89;107136;1261;61501;-38
2023/04/14 02:33:52;;;;;;;7.20;4.60;;;;;;;10.69;72.20;98691.13;107022;1257;74763;-38
2023/04/14 02:36:39;;;;;;;6.10;4.80;;;;;;;10.64;72.49;98694.11;107167;1261;68911;-38
2023/04/14 02:39:13;;;;;;;7.50;4.80;;;;;;;10.60;72.63;98692.29;107107;1257;74353;-38
2023/04/14 02:41:43;;;;;;;7.40;4.90;;;;;;;10.55;72.80;98692.25;107170;1260;60578;-38
2023/04/14 02:44:20;;;;;;;8.40;5.00;;;;;;;10.58;72.99;98696.16;106946;1259;61467;-38
2023/04/14 02:47:05;;;;;;;7.90;5.40;;;;;;;10.65;73.02;98696.77;107056;1259;73651;-38
2023/04/14 02:49:39;;;;;;;7.40;5.00;;;;;;;10.61;72.96;98696.40;106940;1258;68784;-38
2023/04/14 02:52:10;;;;;;;8.30;5.30;;;;;;;10.56;73.31;98701.71;106995;1257;73825;-38
2023/04/14 02:54:41;;;;;;;7.90;5.60;;;;;;;10.57;73.24;98701.80;107093;1259;60171;-38
2023/04/14 02:57:10;;;;;;;8.00;6.00;;;;;;;10.57;73.28;98703.11;106981;1258;60570;-38
2023/04/14 02:59:41;;;;;;;10.90;5.30;;;;;;;10.55;73.31;98704.58;107151;1257;73723;-38
2023/04/14 03:02:11;;;;;;;9.60;5.10;;;;;;;10.55;73.21;98704.11;107106;1258;68424;-38
2023/04/14 03:04:44;;;;;;;7.80;5.20;;;;;;;10.52;73.30;98707.64;107099;1258;73639;-38
2023/04/14 03:07:22;;;;;;;8.00;5.50;;;;;;;10.50;73.60;98705.00;107027;1258;60876;-38
2023/04/14 03:09:51;;;;;;;8.70;5.60;;;;;;;10.47;73.53;98709.84;107070;1257;61503;-38
2023/04/14 03:12:28;;;;;;;9.10;5.90;;;;;;;10.41;73.69;98711.95;107028;1258;75055;-38
2023/04/14 03:14:58;;;;;;;8.80;5.90;;;;;;;10.34;74.02;98708.18;107040;1263;67339;-38
2023/04/14 03:17:27;;;;;;;8.10;5.30;;;;;;;10.33;74.17;98711.96;107042;1262;73527;-38
2023/04/14 03:19:57;;;;;;;8.00;5.20;;;;;;;10.33;74.26;98710.18;106982;1261;194652;-38
2023/04/14 03:24:57;;;;;;;7.10;5.80;;;;;;;10.27;74.82;98710.84;104255;1292;599694;-37
2023/04/14 03:27:29;;;;;;;11.20;6.50;;;;;;;10.30;74.88;98709.70;106648;1267;60086;-37
2023/04/14 03:30:00;;;;;;;9.80;5.30;;;;;;;10.32;74.87;98709.25;106634;1267;59248;-38
2023/04/14 03:32:35;;;;;;;8.10;5.60;;;;;;;10.40;74.45;98714.50;106722;1267;73162;-37
2023/04/14 03:35:06;;;;;;;6.10;4.70;;;;;;;10.45;74.33;98719.80;106780;1267;67955;-37
2023/04/14 03:37:37;;;;;;;7.90;5.30;;;;;;;10.51;74.17;98728.15;106523;1263;224166;-38
2023/04/14 03:40:10;;;;;;;7.40;5.90;;;;;;;10.55;73.84;98733.07;107011;1265;60063;-37
2023/04/14 03:42:43;;;;;;;10.10;6.30;;;;;;;10.51;73.44;98733.48;106925;1260;60202;-37
2023/04/14 03:45:13;;;;;;;9.00;5.40;;;;;;;10.45;73.47;98735.45;106954;1260;73151;-37
2023/04/14 03:47:42;;;;;;;6.00;4.70;;;;;;;10.42;73.33;98732.40;107023;1260;68837;-37
2023/04/14 03:50:14;;;;;;;6.40;4.00;;;;;;;10.38;73.72;98734.77;107038;1260;73734;-37
2023/04/14 03:52:42;;;;;;;10.80;5.90;;;;;;;10.37;74.03;98735.46;107058;1266;61708;-37
2023/04/14 03:55:12;;;;;;;7.30;5.40;;;;;;;10.39;74.09;98737.48;107058;1266;61154;-37
2023/04/14 03:57:42;;;;;;;8.90;5.90;;;;;;;10.41;74.05;98740.84;107420;1255;73901;-37
2023/04/14 04:00:14;;;;;;;8.40;5.20;;;;;;;10.37;73.90;98746.14;107202;1257;67672;-37
2023/04/14 04:02:46;;;;;;;11.50;5.10;;;;;;;10.40;73.96;98750.44;107273;1256;73865;-37
2023/04/14 04:05:15;;;;;;;8.20;5.40;;;;;;;10.41;74.10;98753.53;107203;1255;61614;-37
2023/04/14 04:07:44;;;;;;;8.00;5.50;;;;;;;10.41;74.16;98757.41;107143;1262;59968;-37
2023/04/14 04:10:15;;;;;;;6.50;5.50;;;;;;;10.45;74.21;98757.52;107227;1257;74311;-37
2023/04/14 04:12:43;;;;;;;10.10;5.60;;;;;;;10.44;74.01;98760.86;107187;1257;69060;-37
2023/04/14 04:15:20;;;;;;;7.20;5.40;;;;;;;10.41;73.78;98761.83;107174;1255;72736;-38
2023/04/14 04:17:50;;;;;;;8.40;5.60;;;;;;;10.38;74.06;98762.56;107263;1256;59588;-37
2023/04/14 04:20:18;;;;;;;7.90;5.50;;;;;;;10.32;74.27;98756.79;107302;1256;60746;-37
2023/04/14 04:22:50;;;;;;;7.90;5.70;;;;;;;10.32;74.54;98764.66;107283;1256;72920;-37
2023/04/14 04:25:18;;;;;;;;;;;;;;;10.29;74.64;98763.10;107332;1257;66786;-37
2023/04/14 04:27:53;;;;;;;6.60;5.20;;;;;;;10.26;74.78;98764.30;107380;1256;72821;-37
2023/04/14 04:30:22;;;;;;;6.60;5.50;;;;;;;10.30;74.78;98766.27;107272;1257;61421;-37
2023/04/14 04:32:50;;;;;;;7.80;5.80;;;;;;;10.38;74.67;98767.67;107175;1257;60118;-37
2023/04/14 04:35:19;;;;;;;8.20;6.40;;;;;;;10.41;74.66;98772.49;107363;1255;74211;-37
2023/04/14 04:37:48;;;;;;;7.40;6.30;;;;;;;10.42;74.69;98774.21;107274;1257;69441;-37
2023/04/14 04:40:17;;;;;;;8.60;6.60;;;;;;;10.44;74.61;98776.02;107367;1257;72652;-37
2023/04/14 04:42:48;;;;;;;8.20;6.50;;;;;;;10.43;74.72;98780.35;107208;1257;62860;-37
2023/04/14 04:46:05;;;;;;;7.90;5.80;;;;;;;10.50;74.39;98783.89;107293;1257;61445;-37
2023/04/14 04:48:35;;;;;;;8.40;6.10;;;;;;;10.53;74.12;98793.77;107029;1257;74211;-38
2023/04/14 04:51:04;;;;;;;11.10;6.80;;;;;;;10.43;74.24;98795.20;107348;1256;68493;-37
2023/04/14 04:53:33;;;;;;;8.90;7.10;;;;;;;10.38;74.65;98795.31;107384;1256;73808;-37
2023/04/14 04:56:07;;;;;;;10.20;6.20;;;;;;;10.38;74.78;98800.03;107296;1257;61655;-37
2023/04/14 04:58:37;;;;;;;7.80;5.60;;;;;;;10.36;74.78;98798.86;107362;1256;59996;-37
2023/04/14 05:01:10;;;;;;;7.50;5.80;;;;;;;10.44;74.79;98800.48;107317;1256;72958;-37
2023/04/14 05:03:41;;;;;;;8.60;6.00;;;;;;;10.46;74.45;98801.27;107361;1257;69138;-37
2023/04/14 05:06:09;;;;;;;8.00;6.20;;;;;;;10.42;74.56;98804.33;107332;1257;73876;-37
2023/04/14 05:08:40;;;;;;;9.00;6.50;;;;;;;10.41;74.61;98803.86;107351;1259;61011;-37
2023/04/14 05:11:08;;;;;;;8.30;6.80;;;;;;;10.40;74.42;98806.09;107347;1257;61533;-37
2023/04/14 05:13:37;;;;;;;8.70;6.10;;;;;;;10.36;74.47;98812.24;107369;1257;74333;-37
2023/04/14 05:16:09;;;;;;;8.50;6.40;;;;;;;10.41;74.52;98810.52;107441;1257;67942;-37
2023/04/14 05:18:41;;;;;;;9.30;7.20;;;;;;;10.41;74.66;98814.08;107368;1257;74328;-37
2023/04/14 05:21:14;;;;;;;8.60;6.90;;;;;;;10.38;74.71;98816.29;107402;1257;61582;-36
2023/04/14 05:23:43;;;;;;;9.50;7.10;;;;;;;10.35;74.89;98815.34;107289;1257;61082;-37
2023/04/14 05:26:15;;;;;;;7.60;6.20;;;;;;;10.32;75.06;98813.89;107292;1256;73455;-37
2023/04/14 05:28:48;;;;;;;8.70;6.50;;;;;;;10.33;75.00;98814.23;107272;1257;69133;-37
2023/04/14 05:31:17;;;;;;;11.30;7.00;;;;;;;10.35;75.39;98811.06;107375;1256;73880;-37
2023/04/14 05:33:45;;;;;;;7.80;7.00;;;;;;;10.38;75.72;98814.36;107318;1256;61580;-37
2023/04/14 05:36:14;;;;;;;9.10;7.10;;;;;;;10.42;75.69;98815.88;107399;1257;60979;-36
2023/04/14 05:38:43;;;;;;;8.40;6.40;;;;;;;10.48;75.77;98817.94;107431;1259;74244;-37
2023/04/14 05:41:12;;;;;;;10.00;7.10;;;;;;;10.51;75.31;98819.59;107396;1257;69094;-37
2023/04/14 05:43:41;;;;;;;8.30;6.60;;;;;;;10.50;75.17;98821.07;107352;1255;73425;-37
2023/04/14 05:46:10;;;;;;;8.70;7.30;;;;;;;10.44;75.49;98820.92;107259;1257;61664;-37
2023/04/14 05:48:40;;;;;;;9.70;7.20;;;;;;;10.36;75.53;98821.69;107305;1257;60417;-37
2023/04/14 05:51:08;;;;;;;9.60;7.00;;;;;;;10.35;76.13;98824.93;107315;1259;74200;-37
2023/04/14 05:53:37;;;;;;;9.70;7.00;;;;;;;10.36;76.46;98827.80;107391;1257;69074;-37
2023/04/14 05:56:08;;;;;;;8.70;7.30;;;;;;;10.43;76.40;98833.53;107391;1257;72620;-37
2023/04/14 05:58:37;;;;;;;8.80;7.00;;;;;;;10.50;76.54;98837.55;107385;1256;61021;-37
2023/04/14 06:01:09;;;;;;;11.90;7.40;;;;;;;10.51;76.45;98842.68;107382;1257;61551;-37
2023/04/14 06:03:39;;;;;;;10.90;7.50;;;;;;;10.51;76.37;98842.14;107284;1257;73939;-37
2023/04/14 06:06:08;;;;;;;9.10;7.40;;;;;;;10.52;76.17;98846.09;107266;1257;69312;-37
2023/04/14 06:08:38;;;;;;;8.50;7.40;;;;;;;10.52;76.10;98844.85;107266;1256;73600;-38
2023/04/14 06:11:06;;;;;;;13.20;8.30;;;;;;;10.49;76.58;98846.06;107310;1257;61679;-38
2023/04/14 06:13:35;;;;;;;9.30;7.80;;;;;;;10.46;76.96;98845.41;107328;1257;61565;-38
2023/04/14 06:16:04;;;;;;;10.60;8.10;;;;;;;10.40;76.88;98844.96;107279;1257;73762;-38
2023/04/14 06:18:41;;;;;;;9.90;7.60;;;;;;;10.33;77.06;98849.59;107316;1260;68083;-38
2023/04/14 06:21:10;;;;;;;9.70;7.40;;;;;;;10.39;77.62;98844.95;107321;1257;73572;-38
2023/04/14 06:23:39;;;;;;;10.80;8.40;;;;;;;10.51;77.70;98849.04;107340;1257;61523;-38
2023/04/14 06:26:08;;;;;;;9.20;7.40;;;;;;;10.54;77.36;98847.67;107737;1253;61505;-38
2023/04/14 06:28:36;;;;;;;10.70;8.00;;;;;;;10.51;76.68;98847.86;107723;1254;74255;-38
2023/04/14 06:31:05;;;;;;;9.40;6.70;;;;;;;10.41;76.65;98845.90;107723;1253;69168;-38
2023/04/14 06:33:34;;;;;;;8.90;6.80;;;;;;;10.40;76.85;98846.97;107721;1253;73821;-38
2023/04/14 06:36:03;;;;;;;9.10;6.80;;;;;;;10.35;76.94;98842.05;107696;1254;61711;-38
2023/04/14 06:38:32;;;;;;;9.50;7.20;;;;;;;10.37;77.18;98853.82;107688;1254;62101;-38
2023/04/14 06:41:01;;;;;;;9.60;7.00;;;;;;;10.34;77.07;98858.45;107738;1253;74226;-38
2023/04/14 06:43:30;;;;;;;10.70;7.00;;;;;;;10.32;77.46;98860.73;107574;1254;69119;-38
2023/04/14 06:45:58;;;;;;;8.70;7.20;;;;;;;10.37;77.64;98862.59;107547;1254;73861;-38
2023/04/14 06:48:27;;;;;;;9.60;7.00;;;;;;;10.43;77.86;98862.41;107571;1252;61842;-38
2023/04/14 06:50:56;;;;;;;10.00;7.40;;;;;;;10.43;77.63;98865.66;107564;1252;61244;-38
2023/04/14 06:53:25;;;;;;;10.20;6.90;;;;;;;10.34;77.82;98864.62;107541;1256;73967;-38
2023/04/14 06:56:01;;;;;;;9.40;7.00;;;;;;;10.40;77.95;98874.22;107513;1253;69117;-38
2023/04/14 06:58:29;;;;;;;9.10;7.50;;;;;;;10.43;77.93;98882.47;107547;1254;73912;-38
2023/04/14 07:01:00;;;;;;;8.30;7.40;;;;;;;10.40;78.21;98886.30;107576;1254;61579;-38
2023/04/14 07:03:29;;;;;;;11.20;7.70;;;;;;;10.36;78.60;98884.02;107704;1253;61473;-38
2023/04/14 07:06:06;;;;;;;8.90;7.40;;;;;;;10.30;78.47;98889.66;107696;1256;72801;-38
2023/04/14 07:08:35;;;;;;;7.80;6.50;;;;;;;10.31;78.55;98894.93;107778;1254;67033;-38
2023/04/14 07:11:05;;;;;;;10.50;7.60;;;;;;;10.30;78.56;98891.91;107715;1254;73888;-38
2023/04/14 07:13:35;;;;;;;9.30;7.70;;;;;;;10.27;78.25;98894.65;107717;1254;60080;-38
2023/04/14 07:16:07;;;;;;;9.50;7.30;;;;;;;10.19;78.54;98899.29;107599;1253;59963;-38
2023/04/14 07:18:36;;;;;;;9.70;8.00;;;;;;;10.21;79.03;98903.55;107729;1253;73957;-38
2023/04/14 07:21:04;;;;;;;9.10;8.00;;;;;;;10.22;79.05;98902.57;107699;1253;67738;-42
2023/04/14 07:23:33;;;;;;;10.90;8.40;;;;;;;10.20;79.12;98903.77;107621;1254;73525;-42
2023/04/14 07:26:02;;;;;;;10.90;8.70;;;;;;;10.16;79.22;98909.15;107567;1252;61591;-42
2023/04/14 07:28:31;;;;;;;11.60;7.80;;;;;;;10.16;79.50;98914.85;107659;1252;61405;-42
2023/04/14 07:31:09;;;;;;;10.40;8.50;;;;;;;10.25;79.39;98914.67;107557;1254;74230;-42
2023/04/14 07:33:39;;;;;;;11.40;8.20;;;;;;;10.30;79.31;98916.06;108703;1253;69135;-41
2023/04/14 07:36:08;;;;;;;11.50;8.80;;;;;;;10.28;78.99;98916.73;107608;1253;73972;-40
2023/04/14 07:38:36;;;;;;;10.80;7.80;;;;;;;10.25;79.11;98918.55;107612;1253;63216;-38
2023/04/14 07:41:05;;;;;;;10.30;8.40;;;;;;;10.26;79.03;98915.47;107672;1254;61513;-38
2023/04/14 07:43:35;;;;;;;10.70;8.40;;;;;;;10.24;79.03;98919.46;107644;1253;75270;-38
2023/04/14 07:46:06;;;;;;;11.70;8.20;;;;;;;10.18;79.28;98920.45;107538;1253;66975;-38
2023/04/14 07:48:35;;;;;;;;;;;;;;;10.10;79.43;98918.30;107591;1254;72628;-38
2023/04/14 07:51:08;;;;;;;10.50;7.90;;;;;;;10.05;80.07;98916.10;107485;1254;63186;-38
2023/04/14 07:53:42;;;;;;;10.70;8.50;;;;;;;10.10;80.36;98912.59;107671;1254;61753;-38
2023/04/14 07:56:11;;;;;;;11.30;9.00;;;;;;;10.14;80.75;98905.69;107679;1253;75065;-38
2023/04/14 07:58:41;;;;;;;11.30;9.20;;;;;;;10.17;80.96;98903.89;107699;1253;67662;-38
2023/04/14 08:01:10;;;;;;;12.10;8.50;;;;;;;10.20;81.17;98899.60;107553;1254;73875;-38
2023/04/14 08:03:39;;;;;;;14.60;9.80;;;;;;;10.28;81.07;98897.77;107605;1253;61509;-38
2023/04/14 08:06:12;;;;;;;10.10;8.40;;;;;;;10.34;81.02;98900.80;107627;1254;60309;-38
2023/04/14 08:08:42;;;;;;;12.60;9.30;;;;;;;10.36;81.10;98900.34;107729;1252;74959;-38
2023/04/14 08:11:11;;;;;;;12.30;8.80;;;;;;;10.37;81.00;98901.05;107589;1253;68903;-38
2023/04/14 08:13:39;;;;;;;12.00;10.00;;;;;;;10.45;80.86;98903.16;107652;1254;73885;-38
2023/04/14 08:16:08;;;;;;;13.40;9.90;;;;;;;10.50;80.84;98902.91;107695;1252;61186;-38
2023/04/14 08:18:39;;;;;;;;;;;;;;;10.50;80.67;98909.25;107741;1254;62562;-38
2023/04/14 08:21:08;;;;;;;13.30;8.80;;;;;;;10.45;80.74;98907.19;107650;1253;75044;-39
2023/04/14 08:23:37;;;;;;;14.00;10.00;;;;;;;10.47;80.72;98904.27;107675;1253;69069;-37
2023/04/14 08:26:07;;;;;;;12.40;9.90;;;;;;;10.52;80.71;98901.24;107614;1253;73886;-37
2023/04/14 08:28:35;;;;;;;11.90;9.50;;;;;;;10.57;81.09;98901.67;107549;1252;61620;-37
2023/04/14 08:31:04;;;;;;;10.80;8.60;;;;;;;10.63;81.22;98900.80;107573;1253;60359;-37
2023/04/14 08:33:34;;;;;;;11.10;8.90;;;;;;;10.75;80.99;98903.96;107545;1254;75816;-37
2023/04/14 08:36:03;;;;;;;12.00;9.20;;;;;;;10.85;81.01;98910.89;107668;1254;68181;-37
2023/04/14 08:38:34;;;;;;;13.60;9.70;;;;;;;10.92;80.55;98913.60;107544;1256;73885;-36
2023/04/14 08:41:03;;;;;;;12.10;9.40;;;;;;;10.96;80.22;98919.84;107696;1253;63236;-37
2023/04/14 08:43:32;;;;;;;10.00;8.30;;;;;;;11.04;79.99;98923.86;107564;1253;61354;-37
2023/04/14 08:46:06;;;;;;;11.50;9.10;;;;;;;11.09;79.08;98926.47;107563;1252;73905;-37
2023/04/14 08:48:35;;;;;;;11.50;8.90;;;;;;;11.07;79.18;98927.40;107649;1256;67652;-37
2023/04/14 08:51:15;;;;;;;15.30;9.00;;;;;;;11.04;78.52;98924.55;107599;1254;73666;-37
2023/04/14 08:53:45;;;;;;;12.20;8.70;;;;;;;10.94;78.12;98928.48;107712;1256;62919;-37
2023/04/14 08:56:16;;;;;;;13.40;8.60;;;;;;;10.93;78.18;98926.85;107590;1253;60327;-37
2023/04/14 08:58:44;;;;;;;;;;;;;;;10.87;78.47;98923.39;107723;1254;74752;-37
2023/04/14 09:01:14;;;;;;;12.70;10.10;;;;;;;10.72;78.66;98923.45;107624;1254;69164;-37
2023/04/14 09:03:44;;;;;;;11.70;9.20;;;;;;;10.59;79.04;98917.11;107696;1256;73858;-37
2023/04/14 09:06:13;;;;;;;14.10;9.20;;;;;;;10.60;79.67;98915.41;107604;1254;61993;-37
2023/04/14 09:08:47;;;;;;;14.40;9.20;;;;;;;10.67;79.84;98914.11;107578;1253;61200;-37
2023/04/14 09:11:16;;;;;;;10.40;7.80;;;;;;;10.68;79.70;98916.91;107486;1254;74899;-37
2023/04/14 09:13:46;;;;;;;14.20;10.10;;;;;;;10.70;80.06;98919.25;107665;1254;69149;-37
2023/04/14 09:16:16;;;;;;;13.50;9.60;;;;;;;10.76;79.49;98919.93;107733;1253;73524;-37
2023/04/14 09:18:46;;;;;;;11.40;9.80;;;;;;;10.81;78.98;98920.31;107546;1254;60597;-37
2023/04/14 09:21:18;;;;;;;12.50;10.10;;;;;;;10.81;78.46;98924.71;107683;1254;61503;-37
2023/04/14 09:24:07;;;;;;;13.90;9.70;;;;;;;10.78;78.45;98929.11;107712;1254;74810;-37
2023/04/14 09:26:39;;;;;;;13.40;9.70;;;;;;;10.76;78.20;98930.38;107566;1253;68920;-37
2023/04/14 09:29:08;;;;;;;14.30;10.40;;;;;;;10.80;78.12;98932.83;107691;1254;73669;-38
2023/04/14 09:31:37;;;;;;;16.00;10.60;;;;;;;10.80;77.84;98931.61;107720;1254;60433;-38
2023/04/14 09:34:15;;;;;;;15.30;10.30;;;;;;;10.76;77.76;98928.75;107531;1253;61405;-38
2023/04/14 09:37:05;;;;;;;10.50;8.60;;;;;;;10.79;78.16;98937.02;107568;1253;74990;-38
2023/04/14 09:39:35;;;;;;;13.40;10.00;;;;;;;10.86;78.06;98941.67;107696;1253;69216;-39
2023/04/14 09:42:04;;;;;;;11.90;10.20;;;;;;;10.87;78.27;98944.31;107727;1254;73853;-39
2023/04/14 09:44:33;;;;;;;14.40;11.00;;;;;;;10.88;78.57;98943.94;107605;1252;61574;-38
2023/04/14 09:47:06;;;;;;;17.40;9.70;;;;;;;10.92;78.32;98944.42;107660;1253;61650;-39
2023/04/14 09:49:36;;;;;;;11.60;10.00;;;;;;;10.97;77.87;98944.33;107670;1254;75038;-39
2023/04/14 09:52:10;;;;;;;12.00;10.10;;;;;;;10.93;77.54;98949.64;107565;1254;69084;-39
2023/04/14 09:54:39;;;;;;;13.60;10.30;;;;;;;10.86;77.68;98947.39;107609;1256;73851;-39
2023/04/14 09:57:07;;;;;;;11.10;9.20;;;;;;;10.81;77.69;98949.19;107595;1254;63171;-39
2023/04/14 09:59:39;;;;;;;14.00;9.40;;;;;;;10.85;77.74;98951.17;107657;1252;61217;-39
2023/04/14 10:02:08;;;;;;;;;;;;;;;10.87;78.00;98951.67;107636;1252;75048;-39
2023/04/14 10:04:36;;;;;;;14.70;10.80;;;;;;;10.84;78.09;98954.43;107738;1254;67719;-39
2023/04/14 10:07:10;;;;;;;13.10;10.10;;;;;;;10.83;78.10;98956.51;107651;1254;73968;-39
2023/04/14 10:09:40;;;;;;;11.00;9.70;;;;;;;10.98;78.09;98960.45;107584;1254;63151;-39
2023/04/14 10:12:13;;;;;;;12.90;9.60;;;;;;;11.13;78.64;98958.14;107653;1253;61594;-39
2023/04/14 10:14:42;;;;;;;13.80;10.10;;;;;;;11.29;77.94;98957.66;107545;1254;73283;-39
2023/04/14 10:17:12;;;;;;;12.20;9.60;;;;;;;11.35;77.26;98960.76;107533;1254;69584;-39
2023/04/14 10:19:41;;;;;;;11.70;9.70;;;;;;;11.40;76.72;98952.89;107583;1254;74339;-39
2023/04/14 10:22:09;;;;;;;11.50;9.70;;;;;;;11.46;75.73;98954.27;107609;1253;60599;-39
2023/04/14 10:24:39;;;;;;;13.70;10.00;;;;;;;11.49;75.30;98959.17;107557;1254;60306;-39
2023/04/14 10:27:07;;;;;;;15.20;10.00;;;;;;;11.49;75.12;98960.95;107519;1254;74983;-39
2023/04/14 10:29:39;;;;;;;10.60;9.20;;;;;;;11.50;74.39;98967.71;107621;1254;69121;-39
2023/04/14 10:32:08;;;;;;;14.30;10.40;;;;;;;11.55;73.49;98966.36;107581;1253;73854;-39
2023/04/14 10:34:36;;;;;;;13.60;10.20;;;;;;;11.56;74.05;98969.86;107540;1254;61373;-39
2023/04/14 10:37:15;;;;;;;17.30;10.60;;;;;;;11.58;73.94;98976.63;107421;1253;61400;-39
2023/04/14 10:39:43;;;;;;;13.90;9.80;;;;;;;11.57;74.47;98975.83;107560;1254;74867;-39
2023/04/14 10:42:12;;;;;;;16.70;9.90;;;;;;;11.59;73.71;98979.74;107535;1254;69140;-39
2023/04/14 10:44:40;;;;;;;12.10;9.50;;;;;;;11.54;73.06;98982.73;107603;1254;73852;-39
2023/04/14 10:47:09;;;;;;;12.70;10.10;;;;;;;11.44;73.26;98984.89;107720;1254;60982;-39
2023/04/14 10:49:39;;;;;;;14.20;9.60;;;;;;;11.38;74.00;98981.95;107790;1252;60380;-39
2023/04/14 10:52:11;;;;;;;13.60;9.20;;;;;;;11.37;74.81;98984.19;107713;1252;73979;-39
2023/04/14 10:54:59;;;;;;;13.00;9.50;;;;;;;11.47;74.96;98983.34;107568;1254;68961;-39
2023/04/14 10:57:29;;;;;;;12.30;9.90;;;;;;;11.55;74.44;98982.34;107541;1254;73829;-39
2023/04/14 11:00:02;;;;;;;14.70;10.00;;;;;;;11.57;73.67;98984.99;107519;1254;60631;-39
2023/04/14 11:02:33;;;;;;;12.80;9.30;;;;;;;11.56;73.30;98989.04;107491;1254;61347;-39
2023/04/14 11:05:11;;;;;;;12.70;9.30;;;;;;;11.53;73.33;98992.02;107701;1254;75070;-39
2023/04/14 11:07:44;;;;;;;12.70;9.30;;;;;;;11.64;74.03;98992.89;107633;1254;69087;-39
2023/04/14 11:10:15;;;;;;;13.40;9.10;;;;;;;11.70;73.66;98993.71;107612;1254;71595;-39
2023/04/14 11:12:44;;;;;;;13.30;9.50;;;;;;;11.70;72.96;98990.06;107532;1254;61808;-39
2023/04/14 11:15:17;;;;;;;11.30;8.90;;;;;;;11.66;73.30;98990.98;107526;1254;61572;-39
2023/04/14 11:17:47;;;;;;;13.70;9.00;;;;;;;11.65;73.23;98994.21;107598;1254;75061;-38
2023/04/14 11:20:20;;;;;;;;;;;;;;;11.62;73.04;98999.16;107540;1254;70045;-38
2023/04/14 11:22:52;;;;;;;13.50;9.60;;;;;;;11.49;73.53;99000.05;107570;1254;73467;-38
2023/04/14 11:25:21;;;;;;;12.00;9.80;;;;;;;11.41;74.11;98994.55;107491;1254;61548;-38
2023/04/14 11:27:52;;;;;;;14.20;9.00;;;;;;;11.37;73.95;98993.64;107566;1254;61535;-38
2023/04/14 11:30:22;;;;;;;15.30;9.90;;;;;;;11.40;73.77;98994.54;107641;1256;74776;-38
2023/04/14 11:32:52;;;;;;;12.70;9.30;;;;;;;11.41;73.64;98996.02;107612;1254;69285;-38
2023/04/14 11:35:25;;;;;;;14.50;10.90;;;;;;;11.38;73.46;98993.88;107607;1254;72277;-39
2023/04/14 11:37:57;;;;;;;12.60;9.20;;;;;;;11.33;73.68;98994.30;107546;1254;61271;-39
2023/04/14 11:40:26;;;;;;;12.20;10.10;;;;;;;11.33;73.46;98993.61;107500;1254;61635;-39
2023/04/14 11:42:57;;;;;;;12.60;9.70;;;;;;;11.32;73.24;98998.56;107531;1253;74722;-40